Home > Products > Valid Products > TAF

000
FTUS43 KDTX 281131
TAFFNT
TAF
KFNT 281131Z 2812/2912 12005KT P6SM SCT035
      TEMPO 2812/2813 5SM BR
     FM282000 18010KT P6SM SCT050
     FM290100 12005KT P6SM SKC=



000
FTUS43 KDTX 281131
TAFDET
TAF
KDET 281131Z 2812/2912 12005KT P6SM SCT035
     FM282000 12010KT P6SM SCT050
     FM290100 09005KT P6SM SKC=



000
FTUS43 KDTX 281131
TAFDTW
TAF
KDTW 281131Z 2812/2918 12005KT P6SM SCT035
     FM282000 16010KT P6SM SCT050
     FM290100 09005KT P6SM SKC
     FM291400 17008KT P6SM SCT030=



000
FTUS43 KDTX 281131
TAFMBS
TAF
KMBS 281131Z 2812/2912 12005KT P6SM SCT035
     FM282000 18010KT P6SM SCT050
     FM290100 12005KT P6SM SKC=



000
FTUS43 KDTX 280936 AAA
TAFFNT
TAF AMD
KFNT 280936Z 2810/2906 28005KT 3SM BR SKC
      TEMPO 2810/2812 1/2SM FG VV002
     FM281300 12005KT P6SM SCT035
     FM282000 18010KT P6SM SCT050
     FM290100 12005KT P6SM SKC=



000
FTUS43 KDTX 280905 AAA
TAFDTW
TAF AMD
KDTW 280905Z 2809/2912 28005KT P6SM SKC
      TEMPO 2810/2813 5SM BR
     FM281300 12005KT P6SM SCT035
     FM282000 16010KT P6SM SCT050
     FM290100 09005KT P6SM SKC=



000
FTUS43 KDTX 280539
TAFMBS
TAF
KMBS 280539Z 2806/2906 27005KT P6SM SCT080
     FM281300 12005KT P6SM SCT035
     FM282000 18010KT P6SM SCT050
     FM290100 12005KT P6SM SKC=



000
FTUS43 KDTX 280539
TAFDTW
TAF
KDTW 280539Z 2806/2912 28005KT P6SM SKC
      TEMPO 2810/2813 5SM BR
     FM281300 12005KT P6SM SCT035
     FM282000 16010KT P6SM SCT050
     FM290100 09005KT P6SM SKC=



000
FTUS43 KDTX 280539
TAFDET
TAF
KDET 280539Z 2806/2906 30005KT P6SM SKC
      TEMPO 2810/2813 5SM BR
     FM281300 12005KT P6SM SCT035
     FM282000 12010KT P6SM SCT050
     FM290100 09005KT P6SM SKC=



000
FTUS43 KDTX 280539
TAFFNT
TAF
KFNT 280539Z 2806/2906 28005KT P6SM SKC
      TEMPO 2810/2813 5SM BR
     FM281300 12005KT P6SM SCT035
     FM282000 18010KT P6SM SCT050
     FM290100 12005KT P6SM SKC=



000
FTUS43 KDTX 280303 AAA
TAFDTW
TAF AMD
KDTW 280303Z 2803/2906 28005KT P6SM SCT100
     FM281000 VRB03KT 5SM BR SKC
     FM281300 12005KT P6SM SCT035
     FM282000 16010KT P6SM SCT050=



000
FTUS43 KDTX 272325
TAFDTW
TAF
KDTW 272325Z 2800/2906 26013G20KT P6SM BKN040 OVC100
     FM280200 26007KT P6SM SCT040
     FM280800 VRB03KT 5SM BR SKC
     FM281300 12005KT P6SM SCT035
     FM282000 16010KT P6SM SCT050=



000
FTUS43 KDTX 272325
TAFFNT
TAF
KFNT 272325Z 2800/2824 26013G20KT P6SM SCT040 BKN100 OVC250
     FM280200 26007KT P6SM SCT040
     FM280800 VRB03KT 5SM BR SKC
     FM281300 12005KT P6SM SCT035
     FM282000 18010KT P6SM SCT050=



000
FTUS43 KDTX 272325
TAFMBS
TAF
KMBS 272325Z 2800/2824 28013G20KT P6SM BKN040
     FM280200 26007KT P6SM SCT040
     FM280800 VRB03KT 5SM BR SKC
     FM281300 12005KT P6SM SCT035
     FM282000 16010KT P6SM SCT050=



000
FTUS43 KDTX 272325
TAFDET
TAF
KDET 272325Z 2800/2824 26013G20KT P6SM BKN040 OVC100
     FM280200 26007KT P6SM SCT040
     FM280800 VRB03KT 5SM BR SKC
     FM281300 12005KT P6SM SCT035
     FM282000 16010KT P6SM SCT050=



000
FTUS43 KDTX 272325
TAFDTW
TAF
KDTW 272325Z 2800/2906 26013G20KT P6SM BKN040 OVC100
     FM280200 26007KT P6SM SCT040
     FM280800 VRB03KT 5SM BR SKC
     FM281300 12005KT P6SM SCT035
     FM282000 16010KT P6SM SCT050=



000
FTUS43 KDTX 272325
TAFFNT
TAF
KFNT 272325Z 2800/2824 26013G20KT P6SM SCT040 BKN100 OVC250
     FM280200 26007KT P6SM SCT040
     FM280800 VRB03KT 5SM BR SKC
     FM281300 12005KT P6SM SCT035
     FM282000 18010KT P6SM SCT050=



000
FTUS43 KDTX 272325
TAFMBS
TAF
KMBS 272325Z 2800/2824 28013G20KT P6SM BKN040
     FM280200 26007KT P6SM SCT040
     FM280800 VRB03KT 5SM BR SKC
     FM281300 12005KT P6SM SCT035
     FM282000 16010KT P6SM SCT050=



000
FTUS43 KDTX 272325
TAFDET
TAF
KDET 272325Z 2800/2824 26013G20KT P6SM BKN040 OVC100
     FM280200 26007KT P6SM SCT040
     FM280800 VRB03KT 5SM BR SKC
     FM281300 12005KT P6SM SCT035
     FM282000 16010KT P6SM SCT050=



000
FTUS43 KDTX 272102 AAB
TAFDET
TAF AMD
KDET 272102Z 2721/2818 24013G20KT P6SM SCT040 BKN100 OVC200
     FM280100 29007KT P6SM SCT040
     FM280800 VRB04KT 5SM BR SCT030
     FM281400 16008KT P6SM BKN040=



000
FTUS43 KDTX 272102 AAB
TAFDET
TAF AMD
KDET 272102Z 2721/2818 24013G20KT P6SM SCT040 BKN100 OVC200
     FM280100 29007KT P6SM SCT040
     FM280800 VRB04KT 5SM BR SCT030
     FM281400 16008KT P6SM BKN040=



000
FTUS43 KDTX 272101 AAB
TAFDTW
TAF AMD
KDTW 272101Z 2721/2824 22013G20KT P6SM SCT040 BKN100 OVC200
     FM280100 28008KT P6SM SCT040
     FM280800 VRB04KT 5SM BR SCT030
     FM281400 16008KT P6SM BKN040=



000
FTUS43 KDTX 272101 AAB
TAFDTW
TAF AMD
KDTW 272101Z 2721/2824 22013G20KT P6SM SCT040 BKN100 OVC200
     FM280100 28008KT P6SM SCT040
     FM280800 VRB04KT 5SM BR SCT030
     FM281400 16008KT P6SM BKN040=



000
FTUS43 KDTX 271957 AAA
TAFFNT
TAF AMD
KFNT 271957Z 2720/2818 25016G26KT P6SM SCT040 BKN100
     FM272200 26014G20KT P6SM BKN040
     FM280200 29006KT P6SM SCT040
     FM280800 VRB04KT 6SM BR SCT030
     FM281400 18007KT P6SM BKN040=



000
FTUS43 KDTX 271957 AAA
TAFFNT
TAF AMD
KFNT 271957Z 2720/2818 25016G26KT P6SM SCT040 BKN100
     FM272200 26014G20KT P6SM BKN040
     FM280200 29006KT P6SM SCT040
     FM280800 VRB04KT 6SM BR SCT030
     FM281400 18007KT P6SM BKN040=



000
FTUS43 KDTX 271952 AAA
TAFMBS
TAF AMD
KMBS 271952Z 2720/2818 27017G27KT P6SM SCT030 BKN040
     FM280100 29010KT P6SM SCT040
     FM280800 VRB04KT 6SM BR SCT030
     FM281400 18007KT P6SM BKN040=



000
FTUS43 KDTX 271858 AAA
TAFDET
TAF AMD
KDET 271858Z 2719/2818 22016G24KT P6SM -SHRA SCT040 BKN100
      TEMPO 2720/2722 2SM TSRA OVC035CB
     FM272200 25011KT P6SM BKN040
     FM280100 29007KT P6SM SCT040
     FM280800 VRB04KT 5SM BR SCT030
     FM281400 16008KT P6SM BKN040=



000
FTUS43 KDTX 271856 AAA
TAFDTW
TAF AMD
KDTW 271856Z 2719/2824 21016G24KT P6SM -SHRA SCT040 BKN100
      TEMPO 2720/2722 2SM TSRA OVC035CB
     FM272200 24012KT P6SM BKN040
     FM280100 28008KT P6SM SCT040
     FM280800 VRB04KT 5SM BR SCT030
     FM281400 16008KT P6SM BKN040=



000
FTUS43 KDTX 271728
TAFFNT
TAF
KFNT 271728Z 2718/2818 25016G26KT P6SM -SHRA BKN040
      TEMPO 2718/2721 2SM TSRA OVC035CB
     FM272200 26013KT P6SM BKN040
     FM280000 29008KT P6SM SCT040
     FM280800 VRB04KT 6SM BR SCT030
     FM281400 18007KT P6SM BKN040=



000
FTUS43 KDTX 271728
TAFMBS
TAF
KMBS 271728Z 2718/2818 24019G27KT P6SM BKN040
      TEMPO 2718/2721 3SM -SHRA OVC040
     FM280000 29008KT P6SM SCT040
     FM280800 VRB04KT 6SM BR SCT030
     FM281400 18007KT P6SM BKN040=



000
FTUS43 KDTX 271728
TAFDTW
TAF
KDTW 271728Z 2718/2824 22016G26KT P6SM -SHRA BKN040
      TEMPO 2718/2721 2SM TSRA OVC035CB
     FM272200 24012KT P6SM BKN040
     FM280100 28008KT P6SM SCT040
     FM280800 VRB04KT 5SM BR SCT030
     FM281400 16008KT P6SM BKN040=



000
FTUS43 KDTX 271728
TAFDET
TAF
KDET 271728Z 2718/2818 24016G25KT P6SM -SHRA BKN040
      TEMPO 2718/2721 2SM TSRA OVC035CB
     FM272200 25011KT P6SM BKN040
     FM280100 29007KT P6SM SCT040
     FM280800 VRB04KT 5SM BR SCT030
     FM281400 16008KT P6SM BKN040=



000
FTUS43 KDTX 271601 AAB
TAFFNT
TAF AMD
KFNT 271601Z 2716/2812 23016G26KT P6SM SCT040 SCT060
     FM271700 24016G26KT P6SM -SHRA BKN040
      TEMPO 2718/2721 2SM TSRA OVC035CB
     FM280000 29008KT P6SM SCT040
     FM280800 VRB04KT 6SM BR SCT030=



000
FTUS43 KDTX 271555 AAA
TAFDET
TAF AMD
KDET 271555Z 2716/2812 21016G24KT P6SM SCT040 SCT090
     FM271700 24016G25KT P6SM BKN040
      TEMPO 2717/2721 2SM TSRA OVC035CB
     FM280000 29008KT P6SM SCT040
     FM280800 VRB04KT 6SM BR SCT030=



000
FTUS43 KDTX 271553 AAB
TAFDTW
TAF AMD
KDTW 271553Z 2716/2818 21015G22KT P6SM SCT040 SCT090
     FM271630 22015G25KT P6SM -SHRA BKN040
      TEMPO 2717/2720 2SM TSRA OVC040CB
     FM280000 29008KT P6SM SCT040
     FM280800 VRB04KT 5SM BR SCT030
     FM281400 17008KT P6SM BKN040=



000
FTUS43 KDTX 271508 AAA
TAFFNT
TAF AMD
KFNT 271508Z 2715/2812 24016G24KT P6SM SCT040 SCT080
     FM271700 24016G26KT P6SM BKN040
      TEMPO 2719/2722 4SM SHRA OVC040
     FM280000 29008KT P6SM SCT040
     FM280800 VRB04KT 6SM BR SCT030=



000
FTUS43 KDTX 271508 AAA
TAFFNT
TAF AMD
KFNT 271508Z 2715/2812 24016G24KT P6SM SCT040 SCT080
     FM271700 24016G26KT P6SM BKN040
      TEMPO 2719/2722 4SM SHRA OVC040
     FM280000 29008KT P6SM SCT040
     FM280800 VRB04KT 6SM BR SCT030=



000
FTUS43 KDTX 271505 AAA
TAFMBS
TAF AMD
KMBS 271505Z 2715/2812 22017G27KT P6SM SCT040 SCT060
     FM271600 24017G27KT P6SM BKN040
      TEMPO 2718/2721 5SM -SHRA OVC040
     FM280000 29008KT P6SM SCT040
     FM280800 VRB04KT 6SM BR SCT030=



000
FTUS43 KDTX 271503 AAA
TAFDTW
TAF AMD
KDTW 271503Z 2715/2818 21015G22KT P6SM SCT040 SCT090
     FM271700 22015G25KT P6SM BKN040
      TEMPO 2720/2723 4SM TSRA OVC040CB
     FM280000 29008KT P6SM SCT040
     FM280800 VRB04KT 5SM BR SCT030
     FM281400 17008KT P6SM BKN040=



000
FTUS43 KDTX 271130
TAFFNT
TAF
KFNT 271130Z 2712/2812 21010G18KT P6SM SCT040 SCT100
     FM271700 24012G25KT P6SM BKN040
      TEMPO 2719/2722 4SM SHRA OVC040
     FM280000 29008KT P6SM SCT040
     FM280800 VRB04KT 6SM BR SCT030=



000
FTUS43 KDTX 271130
TAFDET
TAF
KDET 271130Z 2712/2812 21010G18KT P6SM SCT040 SCT100
     FM271700 24012G25KT P6SM BKN040
      TEMPO 2720/2723 4SM TSRA OVC040CB
     FM280000 29008KT P6SM SCT040
     FM280800 VRB04KT 6SM BR SCT030=



000
FTUS43 KDTX 271130
TAFMBS
TAF
KMBS 271130Z 2712/2812 21010G18KT P6SM SCT040 SCT100
     FM271700 24012G25KT P6SM BKN040
      TEMPO 2718/2721 5SM -SHRA OVC040
     FM280000 29008KT P6SM SCT040
     FM280800 VRB04KT 6SM BR SCT030=



000
FTUS43 KDTX 271130
TAFDTW
TAF
KDTW 271130Z 2712/2818 21010G18KT P6SM SCT040 SCT100
     FM271700 24012G25KT P6SM BKN040
      TEMPO 2720/2723 4SM TSRA OVC040CB
     FM280000 29008KT P6SM SCT040
     FM280800 VRB04KT 5SM BR SCT030
     FM281400 17008KT P6SM BKN040=



000
FTUS43 KDTX 271035 AAA
TAFMBS
TAF AMD
KMBS 271035Z 2711/2806 20010KT P6SM BKN025 BKN100
     FM271200 21010G18KT P6SM SCT040
     FM271600 24014G24KT P6SM BKN040
      TEMPO 2718/2721 5SM -SHRA OVC040=



000
FTUS43 KDTX 270909 AAA
TAFDTW
TAF AMD
KDTW 270909Z 2709/2812 20010KT P6SM SCT070 BKN150
     FM271000 22007KT P6SM SCT015
     FM271600 24013G20KT P6SM BKN040 PROB30 2721/2801 5SM SHRA
      OVC040=



000
FTUS43 KDTX 270538
TAFMBS
TAF
KMBS 270538Z 2706/2806 20010KT P6SM SCT070 BKN150
     FM271000 22007KT P6SM BKN015
     FM271600 24013G20KT P6SM BKN040 PROB30 2720/2723 5SM SHRA
      OVC040=



000
FTUS43 KDTX 270538
TAFDTW
TAF
KDTW 270538Z 2706/2812 20010KT P6SM SCT070 BKN150
     FM271000 22007KT 5SM BR SCT015
     FM271600 24013G20KT P6SM BKN040 PROB30 2721/2801 5SM SHRA
      OVC040=



000
FTUS43 KDTX 270538
TAFDET
TAF
KDET 270538Z 2706/2806 20010KT P6SM SCT070 BKN150
     FM271000 22007KT 5SM BR SCT015
     FM271600 24013G20KT P6SM BKN040 PROB30 2721/2801 5SM SHRA
      OVC040=



000
FTUS43 KDTX 270538
TAFFNT
TAF
KFNT 270538Z 2706/2806 20010KT P6SM SCT070 BKN150
     FM271000 22007KT 5SM BR BKN015
     FM271600 24013G20KT P6SM BKN040 PROB30 2720/2723 5SM SHRA
      OVC040=



000
FTUS43 KDTX 270538
TAFDET
TAF
KDET 270538Z 2706/2806 20010KT P6SM SCT070 BKN150
     FM271000 22007KT 5SM BR SCT015
     FM271600 24013G20KT P6SM BKN040 PROB30 2721/2801 5SM SHRA
      OVC040=



000
FTUS43 KDTX 270538
TAFFNT
TAF
KFNT 270538Z 2706/2806 20010KT P6SM SCT070 BKN150
     FM271000 22007KT 5SM BR BKN015
     FM271600 24013G20KT P6SM BKN040 PROB30 2720/2723 5SM SHRA
      OVC040=



000
FTUS43 KDTX 270307 AAA
TAFFNT
TAF AMD
KFNT 270307Z 2703/2724 20010KT P6SM SCT060 BKN120
      TEMPO 2703/2705 5SM SHRA OVC040
     FM271000 22007KT 6SM HZ BKN015
     FM271600 24013G20KT P6SM BKN040=



000
FTUS43 KDTX 270302 AAA
TAFDET
TAF AMD
KDET 270302Z 2703/2724 18010KT P6SM SCT045 BKN120 OVC200
      TEMPO 2703/2706 5SM SHRA OVC045
     FM271000 22007KT 5SM BR SCT015
     FM271600 24013G20KT P6SM SCT050=



000
FTUS43 KDTX 270300 AAA
TAFDTW
TAF AMD
KDTW 270300Z 2703/2806 18010KT P6SM SCT045 BKN120 OVC200
      TEMPO 2703/2706 5SM SHRA OVC045
     FM271000 22007KT 5SM BR SCT015
     FM271600 24013G20KT P6SM SCT050=



000
FTUS43 KDTX 262327
TAFDET
TAF
KDET 262327Z 2700/2724 18010KT P6SM BKN060 OVC120
      TEMPO 2700/2702 3SM SHRA OVC025
     FM270200 20010KT P6SM SCT030 BKN120
     FM271000 22007KT 5SM BR SCT015
     FM271600 24013G20KT P6SM SCT050=



000
FTUS43 KDTX 262327
TAFFNT
TAF
KFNT 262327Z 2700/2724 20013KT P6SM BKN040 OVC080
      TEMPO 2700/2702 3SM SHRA OVC025
     FM270200 20010KT P6SM SCT030 BKN120
     FM271000 22007KT 6SM HZ BKN015
     FM271600 24013G20KT P6SM BKN040=



000
FTUS43 KDTX 262327
TAFMBS
TAF
KMBS 262327Z 2700/2724 20013KT P6SM BKN040 OVC080
      TEMPO 2700/2702 3SM SHRA OVC025
     FM270200 20010KT P6SM SCT030 BKN120
     FM270900 22007KT P6SM BKN015
     FM271600 24013G20KT P6SM BKN040=



000
FTUS43 KDTX 262327
TAFDTW
TAF
KDTW 262327Z 2700/2806 20013KT P6SM BKN060 OVC120
      TEMPO 2700/2702 3SM SHRA OVC025
     FM270200 20010KT P6SM SCT030 BKN120
     FM271000 22007KT 5SM BR SCT015
     FM271600 24013G20KT P6SM SCT050=



000
FTUS43 KDTX 262042 AAA
TAFDET
TAF AMD
KDET 262042Z 2621/2718 16013KT P6SM SCT050 BKN120 OVC250
      TEMPO 2622/2701 20020G30KT 2SM TSRA OVC025CB
     FM270200 20013KT P6SM SCT035
     FM270400 22010KT P6SM BKN015
      TEMPO 2705/2708 -SHRA
     FM271500 24012G20KT P6SM BKN025 OVC040=



000
FTUS43 KDTX 262037 AAA
TAFDTW
TAF AMD
KDTW 262037Z 2621/2724 14013G20KT P6SM SCT050 BKN120 OVC250
      TEMPO 2622/2701 20020G30KT 2SM TSRA OVC025CB
     FM270200 20013KT P6SM SCT035
     FM270400 22010KT P6SM BKN015
      TEMPO 2705/2708 -SHRA
     FM271500 24012G20KT P6SM BKN025 OVC040
     FM271800 24012G20KT P6SM BKN045=



000
FTUS43 KDTX 262023 AAA
TAFFNT
TAF AMD
KFNT 262023Z 2620/2718 18013G20KT P6SM SCT045 BKN250
      TEMPO 2622/2624 2SM TSRA OVC025CB
     FM270100 20013KT P6SM SCT035
     FM270400 22010KT P6SM BKN015
      TEMPO 2704/2707 -SHRA
     FM271500 24012G20KT P6SM BKN025 OVC040=



000
FTUS43 KDTX 262014 AAA
TAFMBS
TAF AMD
KMBS 262014Z 2620/2718 18013KT P6SM BKN045 OVC250
      TEMPO 2622/2624 2SM TSRA OVC025CB
     FM270100 20013KT P6SM SCT035
     FM270400 22010KT P6SM BKN015
      TEMPO 2704/2707 -SHRA
     FM271500 24012G20KT P6SM BKN025 OVC040=



000
FTUS43 KDTX 261720
TAFFNT
TAF
KFNT 261720Z 2618/2718 20012G18KT P6SM SCT045
     FM262200 18014KT P6SM BKN030
      TEMPO 2623/2701 3SM TSRA OVC030CB
     FM270200 19012KT P6SM SCT035
     FM270400 22010KT P6SM BKN015
      TEMPO 2704/2707 -SHRA
     FM271500 24012G20KT P6SM BKN025 OVC040=



000
FTUS43 KDTX 261720
TAFDET
TAF
KDET 261720Z 2618/2718 20012G18KT P6SM SCT045
     FM262200 18014KT P6SM BKN030
      TEMPO 2623/2701 3SM TSRA OVC030CB
     FM270200 19012KT P6SM SCT035
     FM270400 22010KT P6SM BKN015
      TEMPO 2705/2708 -SHRA
     FM271500 24012G20KT P6SM BKN025 OVC040=



000
FTUS43 KDTX 261720
TAFMBS
TAF
KMBS 261720Z 2618/2718 20012G18KT P6SM SCT045
     FM262200 18014KT P6SM BKN030
      TEMPO 2623/2701 3SM TSRA OVC030CB
     FM270200 19012KT P6SM SCT035
     FM270400 22010KT P6SM BKN015
      TEMPO 2704/2707 -SHRA
     FM271500 24012G20KT P6SM BKN025 OVC040=



000
FTUS43 KDTX 261720
TAFMBS
TAF
KMBS 261720Z 2618/2718 20012G18KT P6SM SCT045
     FM262200 18014KT P6SM BKN030
      TEMPO 2623/2701 3SM TSRA OVC030CB
     FM270200 19012KT P6SM SCT035
     FM270400 22010KT P6SM BKN015
      TEMPO 2704/2707 -SHRA
     FM271500 24012G20KT P6SM BKN025 OVC040=



000
FTUS43 KDTX 261720
TAFDET
TAF
KDET 261720Z 2618/2718 20012G18KT P6SM SCT045
     FM262200 18014KT P6SM BKN030
      TEMPO 2623/2701 3SM TSRA OVC030CB
     FM270200 19012KT P6SM SCT035
     FM270400 22010KT P6SM BKN015
      TEMPO 2705/2708 -SHRA
     FM271500 24012G20KT P6SM BKN025 OVC040=



000
FTUS43 KDTX 261720
TAFFNT
TAF
KFNT 261720Z 2618/2718 20012G18KT P6SM SCT045
     FM262200 18014KT P6SM BKN030
      TEMPO 2623/2701 3SM TSRA OVC030CB
     FM270200 19012KT P6SM SCT035
     FM270400 22010KT P6SM BKN015
      TEMPO 2704/2707 -SHRA
     FM271500 24012G20KT P6SM BKN025 OVC040=



000
FTUS43 KDTX 261720
TAFDTW
TAF
KDTW 261720Z 2618/2724 20012G18KT P6SM SCT045
     FM262200 18014KT P6SM BKN030
      TEMPO 2623/2701 3SM TSRA OVC030CB
     FM270200 19012KT P6SM SCT035
     FM270400 22010KT P6SM BKN015
      TEMPO 2705/2708 -SHRA
     FM271500 24012G20KT P6SM BKN025 OVC040
     FM271800 24012G20KT P6SM BKN045=



000
FTUS43 KDTX 261720
TAFDTW
TAF
KDTW 261720Z 2618/2724 20012G18KT P6SM SCT045
     FM262200 18014KT P6SM BKN030
      TEMPO 2623/2701 3SM TSRA OVC030CB
     FM270200 19012KT P6SM SCT035
     FM270400 22010KT P6SM BKN015
      TEMPO 2705/2708 -SHRA
     FM271500 24012G20KT P6SM BKN025 OVC040
     FM271800 24012G20KT P6SM BKN045=



000
FTUS43 KDTX 261524 AAD
TAFDTW
TAF AMD
KDTW 261524Z 2615/2718 20011KT P6SM BKN045
     FM261700 20012KT P6SM SCT045 BKN200
     FM262300 18009KT P6SM OVC045
      TEMPO 2623/2701 3SM TSRA OVC030CB
     FM270800 22010KT P6SM BKN015
     FM271400 22012G20KT P6SM BKN028 OVC040=



000
FTUS43 KDTX 261524 AAC
TAFDET
TAF AMD
KDET 261524Z 2615/2712 22011KT P6SM BKN040
     FM261700 20012KT P6SM SCT045 BKN200
     FM270000 18009KT P6SM -SHRA OVC045 PROB30 2700/2703 3SM TSRA
      OVC030CB
     FM270800 22010KT P6SM BKN015=



000
FTUS43 KDTX 261500 AAB
TAFDET
TAF AMD
KDET 261500Z 2615/2712 22011KT P6SM BKN025
     FM261600 20012KT P6SM SCT035 BKN200
     FM270000 18009KT P6SM -SHRA OVC045 PROB30 2700/2703 3SM TSRA
      OVC030CB
     FM270800 22010KT P6SM BKN015=



000
FTUS43 KDTX 261454 AAC
TAFDTW
TAF AMD
KDTW 261454Z 2615/2718 20011KT 6SM BR BKN025
     FM261600 20012KT P6SM SCT035 BKN200
     FM262300 18009KT P6SM OVC045
      TEMPO 2623/2701 3SM TSRA OVC030CB
     FM270800 22010KT P6SM BKN015
     FM271400 22012G20KT P6SM BKN028 OVC040=



000
FTUS43 KDTX 261454 AAC
TAFDTW
TAF AMD
KDTW 261454Z 2615/2718 20011KT 6SM BR BKN025
     FM261600 20012KT P6SM SCT035 BKN200
     FM262300 18009KT P6SM OVC045
      TEMPO 2623/2701 3SM TSRA OVC030CB
     FM270800 22010KT P6SM BKN015
     FM271400 22012G20KT P6SM BKN028 OVC040=



000
FTUS43 KDTX 261352 AAB
TAFDTW
TAF AMD
KDTW 261352Z 2614/2718 20011KT 6SM BR BKN025
     FM261600 20012KT P6SM SCT035 BKN200
     FM270000 18009KT P6SM -SHRA OVC045 PROB30 2700/2703 3SM TSRA
      OVC030CB
     FM270800 22010KT P6SM BKN015
     FM271400 22012G20KT P6SM BKN028 OVC040=



000
FTUS43 KDTX 261352 AAB
TAFDTW
TAF AMD
KDTW 261352Z 2614/2718 20011KT 6SM BR BKN025
     FM261600 20012KT P6SM SCT035 BKN200
     FM270000 18009KT P6SM -SHRA OVC045 PROB30 2700/2703 3SM TSRA
      OVC030CB
     FM270800 22010KT P6SM BKN015
     FM271400 22012G20KT P6SM BKN028 OVC040=



000
FTUS43 KDTX 261329 AAA
TAFDET
TAF AMD
KDET 261329Z 2613/2712 21011KT 6SM BR BKN015
     FM261600 20012KT P6SM SCT035 BKN200
     FM270000 18009KT P6SM -SHRA OVC045 PROB30 2700/2703 3SM TSRA
      OVC030CB
     FM270800 22010KT P6SM BKN015=



000
FTUS43 KDTX 261329 AAA
TAFDET
TAF AMD
KDET 261329Z 2613/2712 21011KT 6SM BR BKN015
     FM261600 20012KT P6SM SCT035 BKN200
     FM270000 18009KT P6SM -SHRA OVC045 PROB30 2700/2703 3SM TSRA
      OVC030CB
     FM270800 22010KT P6SM BKN015=



000
FTUS43 KDTX 261328 AAA
TAFFNT
TAF AMD
KFNT 261328Z 2613/2712 20011KT 6SM BR BKN015
     FM261600 21012KT P6SM SCT045 BKN200
     FM270000 20009KT P6SM -SHRA OVC045 PROB30 2700/2703 3SM TSRA
      OVC030CB
     FM270800 22010KT P6SM BKN015=



000
FTUS43 KDTX 261328 AAA
TAFFNT
TAF AMD
KFNT 261328Z 2613/2712 20011KT 6SM BR BKN015
     FM261600 21012KT P6SM SCT045 BKN200
     FM270000 20009KT P6SM -SHRA OVC045 PROB30 2700/2703 3SM TSRA
      OVC030CB
     FM270800 22010KT P6SM BKN015=



000
FTUS43 KDTX 261327 AAA
TAFMBS
TAF AMD
KMBS 261327Z 2613/2712 20008KT 6SM BR BKN015
     FM261600 22014KT P6SM SCT045 BKN200
     FM270000 20009KT P6SM -SHRA OVC045 PROB30 2700/2703 3SM TSRA
      OVC030CB
     FM270800 22010KT P6SM BKN015=



000
FTUS43 KDTX 261327 AAA
TAFMBS
TAF AMD
KMBS 261327Z 2613/2712 20008KT 6SM BR BKN015
     FM261600 22014KT P6SM SCT045 BKN200
     FM270000 20009KT P6SM -SHRA OVC045 PROB30 2700/2703 3SM TSRA
      OVC030CB
     FM270800 22010KT P6SM BKN015=



000
FTUS43 KDTX 261243 AAA
TAFDTW
TAF AMD
KDTW 261243Z 2613/2718 19008KT 6SM BR BKN012
     FM261600 20012KT P6SM SCT035 BKN200
     FM270000 18009KT P6SM -SHRA OVC045 PROB30 2700/2703 3SM TSRA
      OVC030CB
     FM270800 22010KT P6SM BKN015
     FM271400 22012G20KT P6SM BKN028 OVC040=



000
FTUS43 KDTX 261243 AAA
TAFDTW
TAF AMD
KDTW 261243Z 2613/2718 19008KT 6SM BR BKN012
     FM261600 20012KT P6SM SCT035 BKN200
     FM270000 18009KT P6SM -SHRA OVC045 PROB30 2700/2703 3SM TSRA
      OVC030CB
     FM270800 22010KT P6SM BKN015
     FM271400 22012G20KT P6SM BKN028 OVC040=



000
FTUS43 KDTX 261130
TAFFNT
TAF
KFNT 261130Z 2612/2712 20008KT 6SM BR BKN015
      TEMPO 2612/2614 BKN010
     FM261400 20010KT P6SM SCT010 BKN015
     FM261600 21012KT P6SM SCT045 BKN200
     FM270000 20009KT P6SM -SHRA OVC045 PROB30 2700/2703 3SM TSRA
      OVC030CB
     FM270800 22010KT P6SM BKN015=



000
FTUS43 KDTX 261130
TAFDET
TAF
KDET 261130Z 2612/2712 20008KT 5SM BR BKN010
      TEMPO 2612/2614 BKN008
     FM261400 20010KT P6SM SCT009 BKN012
     FM261600 20012KT P6SM SCT035 BKN200
     FM270000 18009KT P6SM -SHRA OVC045 PROB30 2700/2703 3SM TSRA
      OVC030CB
     FM270800 22010KT P6SM BKN015=



000
FTUS43 KDTX 261130
TAFMBS
TAF
KMBS 261130Z 2612/2712 20008KT 6SM BR BKN015
      TEMPO 2612/2614 BKN010
     FM261400 20010KT P6SM SCT010 BKN015
     FM261600 22014KT P6SM SCT045 BKN200
     FM270000 20009KT P6SM -SHRA OVC045 PROB30 2700/2703 3SM TSRA
      OVC030CB
     FM270800 22010KT P6SM BKN015=



000
FTUS43 KDTX 261130
TAFDTW
TAF
KDTW 261130Z 2612/2718 18008KT 5SM BR BKN010
      TEMPO 2612/2614 BKN008
     FM261400 20010KT P6SM SCT009 BKN012
     FM261600 20012KT P6SM SCT035 BKN200
     FM270000 18009KT P6SM -SHRA OVC045 PROB30 2700/2703 3SM TSRA
      OVC030CB
     FM270800 22010KT P6SM BKN015
     FM271400 22012G20KT P6SM BKN028 OVC040=



000
FTUS43 KDTX 260908 AAA
TAFDTW
TAF AMD
KDTW 260908Z 2609/2712 20008KT P6SM SCT060 BKN200
      TEMPO 2611/2614 BKN018
     FM261600 20012KT P6SM SCT045 BKN200
     FM270000 18009KT P6SM -SHRA OVC045 PROB30 2700/2703 3SM TSRA
      OVC030CB
     FM270800 22010KT P6SM BKN028 OVC040=



000
FTUS43 KDTX 260530
TAFDET
TAF
KDET 260530Z 2606/2706 20008KT P6SM SCT060 BKN200
      TEMPO 2611/2614 BKN018
     FM261600 20012KT P6SM SCT045 BKN200
     FM270000 18009KT P6SM -SHRA OVC045 PROB30 2700/2703 3SM TSRA
      OVC030CB=



000
FTUS43 KDTX 260530
TAFDTW
TAF
KDTW 260530Z 2606/2712 20008KT P6SM SCT060 BKN200
      TEMPO 2611/2614 BKN018
     FM261600 20012KT P6SM SCT045 BKN200
     FM270000 18009KT P6SM -SHRA OVC045 PROB30 2700/2703 3SM TSRA
      OVC030CB
     FM270800 22010KT P6SM BKN028 OVC040=



000
FTUS43 KDTX 260530
TAFFNT
TAF
KFNT 260530Z 2606/2706 20006KT P6SM SCT060 BKN200
      TEMPO 2611/2615 BKN016
     FM261600 21012KT P6SM SCT045 BKN200
     FM270000 20009KT P6SM -SHRA OVC045 PROB30 2700/2703 3SM TSRA
      OVC030CB=



000
FTUS43 KDTX 260530
TAFMBS
TAF
KMBS 260530Z 2606/2706 21006KT P6SM SCT040 BKN200
      TEMPO 2611/2615 BKN016
     FM261600 22014KT P6SM SCT045 BKN200
     FM270000 20009KT P6SM -SHRA OVC045 PROB30 2700/2703 3SM TSRA
      OVC030CB=



000
FTUS43 KDTX 260214 AAA
TAFDTW
TAF AMD
KDTW 260214Z 2602/2706 20010KT P6SM SCT060 BKN200
     FM261000 19007KT 4SM BR BKN014
     FM261500 20012KT P6SM SCT045 BKN060
     FM270100 19010KT 4SM SHRA OVC045=



000
FTUS43 KDTX 252322
TAFFNT
TAF
KFNT 252322Z 2600/2624 23011G18KT P6SM SCT040 BKN060 BKN200
     FM260200 21010KT P6SM SCT040 BKN200
     FM261000 20006KT 4SM BR BKN014
     FM261600 21012KT P6SM SCT045 BKN060=



000
FTUS43 KDTX 252322
TAFDTW
TAF
KDTW 252322Z 2600/2706 20015G20KT P6SM SCT045 BKN060 BKN200
     FM260300 20010KT P6SM SCT040 BKN200
     FM261000 19007KT 4SM BR BKN014
     FM261500 20012KT P6SM SCT045 BKN060
     FM270100 19010KT 4SM SHRA OVC045=



000
FTUS43 KDTX 252322
TAFMBS
TAF
KMBS 252322Z 2600/2624 22014G20KT P6SM SCT045 BKN060 BKN200
     FM260200 21011KT P6SM SCT040 BKN200
     FM261000 20008KT 5SM BR BKN016
     FM261600 22014KT P6SM SCT045 BKN060=



000
FTUS43 KDTX 252322
TAFDET
TAF
KDET 252322Z 2600/2624 20015G20KT P6SM SCT045 BKN060 BKN200
     FM260300 20010KT P6SM SCT040 BKN200
     FM261000 19007KT 4SM BR BKN014
     FM261500 20012KT P6SM SCT045 BKN060=



000
FTUS43 KDTX 252055 AAB
TAFMBS
TAF AMD
KMBS 252055Z 2521/2618 24014G21KT P6SM SCT050 BKN100
      TEMPO 2522/2523 -SHRA BKN050
     FM252300 22012G19KT P6SM SCT060 BKN200
     FM260200 21011KT P6SM FEW040 SCT200
     FM260900 20008KT 4SM BR BKN018=



000
FTUS43 KDTX 252054 AAB
TAFDTW
TAF AMD
KDTW 252054Z 2521/2624 20022G28KT P6SM BKN050
      TEMPO 2521/2523 6SM -SHRA BKN040
     FM260000 21012G18KT P6SM SCT060 BKN200
     FM260200 21011KT P6SM FEW040 SCT200
     FM260900 20008KT 4SM BR BKN018=



000
FTUS43 KDTX 252019 AAA
TAFFNT
TAF AMD
KFNT 252019Z 2520/2618 20016G26KT P6SM SCT035 BKN070
     FM252100 21018G28KT P6SM -SHRA BKN050
      TEMPO 2521/2522 23022G34KT 5SM SHRA BKN035
     FM252300 21014G20KT P6SM SCT060 BKN200
     FM260200 21011KT P6SM FEW040 SCT200
     FM260900 20008KT 4SM BR BKN018=



000
FTUS43 KDTX 252006 AAA
TAFMBS
TAF AMD
KMBS 252006Z 2520/2618 21013G19KT P6SM -SHRA BKN040 BKN120
      TEMPO 2520/2521 24022G32KT 4SM SHRA OVC030
     FM252200 22012G19KT P6SM SCT060 BKN200
     FM260200 21011KT P6SM FEW040 SCT200
     FM260900 20008KT 4SM BR BKN018=



000
FTUS43 KDTX 251908 AAA
TAFDTW
TAF AMD
KDTW 251908Z 2519/2624 20020G28KT P6SM SCT040
      TEMPO 2521/2524 6SM -SHRA BKN045
     FM260000 21012G18KT P6SM SCT060 BKN200
     FM260200 21011KT P6SM FEW040 SCT200
     FM260900 20008KT 4SM BR BKN018=



000
FTUS43 KDTX 251720
TAFFNT
TAF
KFNT 251720Z 2518/2618 19019G27KT P6SM BKN035
      TEMPO 2518/2519 -SHRA
     FM251900 20020G28KT P6SM BKN035
      TEMPO 2520/2523 6SM -SHRA
     FM260000 21012G18KT P6SM SCT060 BKN200
     FM260200 21011KT P6SM FEW040 SCT200
     FM260900 20008KT 4SM BR BKN018=



000
FTUS43 KDTX 251720
TAFMBS
TAF
KMBS 251720Z 2518/2618 21013KT P6SM BKN035 BKN120
      TEMPO 2518/2522 6SM -SHRA BKN035
     FM252300 22012G19KT P6SM SCT060 BKN200
     FM260200 21011KT P6SM FEW040 SCT200
     FM260900 20008KT 4SM BR BKN018=



000
FTUS43 KDTX 251720
TAFDTW
TAF
KDTW 251720Z 2518/2624 19019G27KT P6SM BKN035
      TEMPO 2518/2519 -SHRA
     FM251900 21020G28KT P6SM BKN035
      TEMPO 2521/2524 6SM -SHRA
     FM260000 21012G18KT P6SM SCT060 BKN200
     FM260200 21011KT P6SM FEW040 SCT200
     FM260900 20008KT 4SM BR BKN018=



000
FTUS43 KDTX 251720
TAFDET
TAF
KDET 251720Z 2518/2618 19019G27KT P6SM BKN035
      TEMPO 2518/2519 -SHRA
     FM251900 21020G28KT P6SM BKN035
      TEMPO 2521/2524 6SM -SHRA
     FM260000 22012G18KT P6SM SCT060 BKN200
     FM260200 21011KT P6SM FEW040 SCT200
     FM260900 20008KT 4SM BR BKN018=



000
FTUS43 KDTX 251645 AAA
TAFMBS
TAF AMD
KMBS 251645Z 2517/2612 20015G25KT P6SM BKN035 OVC080
     FM251715 22015G28KT 2SM +SHRA BR OVC030
     FM251730 22018G28KT P6SM BKN035 OVC080
      TEMPO 2519/2523 6SM SHRA OVC040
     FM252300 22012G19KT P6SM SCT060 BKN200
     FM260300 21011KT P6SM FEW040 SCT200
     FM260900 20008KT 4SM BR BKN018=



000
FTUS43 KDTX 251645 AAA
TAFMBS
TAF AMD
KMBS 251645Z 2517/2612 20015G25KT P6SM BKN035 OVC080
     FM251715 22015G28KT 2SM +SHRA BR OVC030
     FM251730 22018G28KT P6SM BKN035 OVC080
      TEMPO 2519/2523 6SM SHRA OVC040
     FM252300 22012G19KT P6SM SCT060 BKN200
     FM260300 21011KT P6SM FEW040 SCT200
     FM260900 20008KT 4SM BR BKN018=



000
FTUS43 KDTX 251614 AAB
TAFDTW
TAF AMD
KDTW 251614Z 2516/2618 20017G26KT P6SM BKN040
      TEMPO 2520/2523 6SM -SHRA OVC040
     FM252300 21012G18KT P6SM SCT060 BKN200
     FM260300 21011KT P6SM FEW040 SCT200
     FM260900 20008KT 4SM BR BKN018=



000
FTUS43 KDTX 251502 AAA
TAFDTW
TAF AMD
KDTW 251502Z 2515/2618 20016G24KT P6SM SCT045 BKN150
     FM251700 22019G28KT P6SM BKN045 BKN100
      TEMPO 2520/2523 6SM -SHRA OVC040
     FM252300 21012G18KT P6SM SCT060 BKN200
     FM260300 21011KT P6SM FEW040 SCT200
     FM260900 20008KT 4SM BR BKN018=



    US Dept of Commerce
    National Oceanic and Atmospheric Administration
    National Weather Service
    1325 East West Highway
    Silver Spring, MD 20910
    Page Author: NWS Internet Services Team
Disclaimer
Information Quality
Credits
Glossary
Privacy Policy
Freedom of Information Act (FOIA)
About Us
Career Opportunities